Time;durP1;ratioP1;P1;durP2;ratioP2;P2;SDS_P1;SDS_P2;PMS_P1;PMS_P2;Temp;Humidity;BMP_temperature;BMP_pressure;BME280_temperature;BME280_humidity;BME280_pressure;Samples;Min_cycle;Max_cycle;Signal;HPM_P1;HPM_P2
2022/09/15 00:00:19;;;;;;;1.52;1.42;;;17.30;61.30;;;;;;5049890;28;20036;-74
2022/09/15 00:02:45;;;;;;;1.95;1.52;;;17.30;61.30;;;;;;5059819;28;20120;-75
2022/09/15 00:05:12;;;;;;;2.38;1.80;;;17.30;61.30;;;;;;5046033;28;20089;-74
2022/09/15 00:07:38;;;;;;;2.45;1.38;;;17.30;61.20;;;;;;5047420;28;20033;-75
2022/09/15 00:10:05;;;;;;;2.15;1.50;;;17.30;61.20;;;;;;5046987;28;20044;-75
2022/09/15 00:12:32;;;;;;;2.28;1.10;;;17.30;61.20;;;;;;5043929;28;20021;-74
2022/09/15 00:14:59;;;;;;;3.13;1.52;;;17.20;60.90;;;;;;5046249;28;20246;-73
2022/09/15 00:17:26;;;;;;;1.58;1.15;;;17.30;61.10;;;;;;5047232;28;20524;-73
2022/09/15 00:19:52;;;;;;;2.08;1.20;;;17.30;61.10;;;;;;5043198;28;20028;-74
2022/09/15 00:22:19;;;;;;;1.80;1.08;;;17.30;61.10;;;;;;5046556;28;20036;-74
2022/09/15 00:24:48;;;;;;;1.88;1.13;;;17.30;61.10;;;;;;5047376;28;20032;-74
2022/09/15 00:27:15;;;;;;;2.75;1.00;;;17.30;61.00;;;;;;5046729;28;20070;-74
2022/09/15 00:29:41;;;;;;;2.33;1.17;;;17.30;61.00;;;;;;5047644;28;20021;-75
2022/09/15 00:32:07;;;;;;;1.73;1.20;;;17.20;60.80;;;;;;5044369;28;20033;-74
2022/09/15 00:34:33;;;;;;;1.58;0.90;;;17.20;60.80;;;;;;5046809;28;20029;-74
2022/09/15 00:37:00;;;;;;;2.70;0.95;;;17.20;60.80;;;;;;5053837;28;20041;-74
2022/09/15 00:39:26;;;;;;;2.75;1.02;;;17.20;60.80;;;;;;5041945;28;20051;-73
2022/09/15 00:41:52;;;;;;;1.55;0.95;;;17.20;60.80;;;;;;5036820;28;20033;-73
2022/09/15 00:44:22;;;;;;;2.13;0.70;;;17.20;60.90;;;;;;5048449;28;20400;-72
2022/09/15 00:46:52;;;;;;;1.67;1.08;;;17.20;60.80;;;;;;5054906;28;20055;-74
2022/09/15 00:49:20;;;;;;;2.40;0.88;;;17.20;60.80;;;;;;5052379;28;20049;-71
2022/09/15 00:52:06;;;;;;;1.85;1.05;;;17.20;60.90;;;;;;5042125;28;20047;-73
2022/09/15 00:54:53;;;;;;;1.08;0.80;;;17.20;60.90;;;;;;5044879;28;20177;-74
2022/09/15 00:57:32;;;;;;;1.02;0.93;;;17.20;60.90;;;;;;5055642;28;20021;-73
2022/09/15 01:00:01;;;;;;;1.25;0.73;;;17.20;60.90;;;;;;5045007;28;20094;-73
2022/09/15 01:02:31;;;;;;;3.95;1.27;;;17.20;60.80;;;;;;5054477;28;20059;-73
2022/09/15 01:05:02;;;;;;;1.67;0.80;;;17.20;60.80;;;;;;5047910;28;20055;-73
2022/09/15 01:07:36;;;;;;;1.23;0.82;;;17.20;60.80;;;;;;5047843;28;20040;-74
2022/09/15 01:10:12;;;;;;;1.15;0.70;;;17.20;60.80;;;;;;5045920;28;20039;-73
2022/09/15 01:12:41;;;;;;;2.47;0.70;;;17.20;60.80;;;;;;5047932;28;20033;-73
2022/09/15 01:15:07;;;;;;;2.22;0.70;;;17.20;60.80;;;;;;5048377;28;20376;-74
2022/09/15 01:18:08;;;;;;;1.52;0.70;;;17.20;60.80;;;;;;5044332;28;20370;-72
2022/09/15 01:21:18;;;;;;;1.10;0.63;;;17.20;60.80;;;;;;5001590;28;20045;-74
2022/09/15 01:23:44;;;;;;;3.20;0.85;;;17.20;60.80;;;;;;5021772;28;20052;-74
2022/09/15 01:26:47;;;;;;;1.00;0.63;;;17.20;60.80;;;;;;5008680;28;20090;-73
2022/09/15 01:29:40;;;;;;;1.40;0.70;;;17.10;60.70;;;;;;5041054;28;20049;-74
2022/09/15 01:35:41;;;;;;;1.75;1.10;;;17.10;61.20;;;;;;5050381;28;20250;-74
2022/09/15 01:38:10;;;;;;;2.65;1.17;;;17.10;60.60;;;;;;5029782;28;20059;-73
2022/09/15 01:40:46;;;;;;;1.63;0.70;;;17.10;60.60;;;;;;5047367;28;20021;-74
2022/09/15 01:43:13;;;;;;;2.33;1.00;;;17.10;60.70;;;;;;5045375;28;20399;-73
2022/09/15 01:45:42;;;;;;;0.80;0.50;;;17.10;60.70;;;;;;5044331;28;20484;-73
2022/09/15 01:48:08;;;;;;;2.03;1.00;;;17.10;60.70;;;;;;5045024;28;20400;-73
2022/09/15 01:50:46;;;;;;;2.03;0.90;;;17.10;60.80;;;;;;5055423;28;20043;-73
2022/09/15 01:53:16;;;;;;;0.98;0.60;;;17.00;60.70;;;;;;5057289;28;20029;-73
2022/09/15 01:55:50;;;;;;;1.02;0.70;;;17.00;60.70;;;;;;5047153;28;20048;-73
2022/09/15 01:58:16;;;;;;;1.20;0.70;;;17.10;60.90;;;;;;5037555;28;20086;-74
2022/09/15 02:00:48;;;;;;;1.58;0.95;;;17.10;60.80;;;;;;5028745;28;20026;-74
2022/09/15 02:03:46;;;;;;;1.50;0.70;;;17.00;60.70;;;;;;5038613;28;20031;-75
2022/09/15 02:06:23;;;;;;;1.73;0.75;;;17.10;60.90;;;;;;5043139;28;20044;-74
2022/09/15 02:08:56;;;;;;;1.77;0.73;;;17.10;60.90;;;;;;5052765;28;20063;-74
2022/09/15 02:11:26;;;;;;;;;;;17.10;60.90;;;;;;5055684;28;20037;-73
2022/09/15 02:14:20;;;;;;;2.67;0.95;;;17.10;60.90;;;;;;5053608;28;19963;-74
2022/09/15 02:16:49;;;;;;;1.70;0.80;;;17.10;60.80;;;;;;5045439;28;20037;-74
2022/09/15 02:19:39;;;;;;;1.35;0.85;;;17.10;60.80;;;;;;5045523;28;20385;-73
2022/09/15 02:22:16;;;;;;;0.98;0.68;;;17.00;60.70;;;;;;5050422;28;20036;-73
2022/09/15 02:24:48;;;;;;;1.02;0.70;;;17.00;60.70;;;;;;5048282;28;20025;-74
2022/09/15 02:27:21;;;;;;;1.05;0.73;;;17.00;60.70;;;;;;5049991;28;20037;-74
2022/09/15 02:29:51;;;;;;;1.15;0.90;;;17.10;60.90;;;;;;5052733;28;20032;-74
2022/09/15 02:32:22;;;;;;;1.25;0.70;;;17.00;60.70;;;;;;5048045;28;20484;-74
2022/09/15 02:34:50;;;;;;;1.00;0.70;;;17.00;60.80;;;;;;5049487;28;20050;-74
2022/09/15 02:37:21;;;;;;;2.60;0.80;;;17.00;60.80;;;;;;5050022;28;20043;-74
2022/09/15 02:39:56;;;;;;;0.88;0.80;;;17.00;60.80;;;;;;5050807;28;20036;-75
2022/09/15 02:42:26;;;;;;;2.10;1.10;;;17.00;60.90;;;;;;5052037;28;20207;-74
2022/09/15 02:44:54;;;;;;;3.20;1.20;;;17.00;60.90;;;;;;5050901;28;20071;-74
2022/09/15 02:47:20;;;;;;;1.17;0.65;;;17.00;60.90;;;;;;5044712;28;20084;-73
2022/09/15 02:49:46;;;;;;;1.20;0.70;;;17.00;60.90;;;;;;5052669;28;20032;-74
2022/09/15 02:52:12;;;;;;;0.98;0.70;;;17.00;60.90;;;;;;5051529;28;20040;-73
2022/09/15 02:54:38;;;;;;;1.58;0.85;;;17.00;60.90;;;;;;5049958;28;20078;-73
2022/09/15 02:57:05;;;;;;;1.77;0.88;;;16.90;60.80;;;;;;5060079;28;20025;-74
2022/09/15 03:02:18;;;;;;;2.00;0.65;;;17.00;61.00;;;;;;5047275;28;20051;-75
2022/09/15 03:04:49;;;;;;;2.38;0.90;;;17.00;61.00;;;;;;5045543;28;20029;-73
2022/09/15 03:07:16;;;;;;;1.73;0.90;;;16.90;60.80;;;;;;5052323;28;20108;-74
2022/09/15 03:09:43;;;;;;;1.65;0.70;;;17.00;60.90;;;;;;5051721;28;20041;-74
2022/09/15 03:12:09;;;;;;;1.35;0.80;;;17.00;60.90;;;;;;5053552;28;20476;-74
2022/09/15 03:14:36;;;;;;;4.05;1.00;;;16.90;60.80;;;;;;5052964;28;20649;-75
2022/09/15 03:17:03;;;;;;;1.23;0.77;;;17.00;60.90;;;;;;5053625;28;20497;-74
2022/09/15 03:19:29;;;;;;;3.70;0.80;;;16.90;60.70;;;;;;5054970;28;20029;-75
2022/09/15 03:21:55;;;;;;;4.68;1.20;;;16.90;60.70;;;;;;5045335;28;20272;-73
2022/09/15 03:24:22;;;;;;;1.60;0.73;;;17.00;60.90;;;;;;5056145;28;20409;-73
2022/09/15 03:26:48;;;;;;;2.13;0.82;;;17.00;60.90;;;;;;5054256;28;20033;-75
2022/09/15 03:29:15;;;;;;;1.67;0.95;;;17.00;60.80;;;;;;5047780;28;20389;-74
2022/09/15 03:31:41;;;;;;;2.83;1.20;;;17.00;60.80;;;;;;5051212;28;20041;-74
2022/09/15 03:34:07;;;;;;;1.52;0.85;;;16.90;60.60;;;;;;5056065;28;20033;-74
2022/09/15 03:36:33;;;;;;;1.73;1.05;;;17.00;60.80;;;;;;5054495;28;20111;-74
2022/09/15 03:39:01;;;;;;;2.88;1.20;;;16.90;60.60;;;;;;5046827;28;20029;-73
2022/09/15 03:41:27;;;;;;;1.55;0.98;;;16.90;60.60;;;;;;5052902;28;20045;-74
2022/09/15 03:43:53;;;;;;;1.92;1.00;;;16.90;60.60;;;;;;5048404;28;20029;-73
2022/09/15 03:46:20;;;;;;;2.78;0.98;;;16.90;60.60;;;;;;5053390;28;20205;-75
2022/09/15 03:48:46;;;;;;;3.83;1.50;;;16.90;60.70;;;;;;5053885;28;20283;-74
2022/09/15 03:51:13;;;;;;;3.08;1.00;;;16.90;60.70;;;;;;5053859;28;20041;-75
2022/09/15 03:53:40;;;;;;;1.83;1.20;;;16.90;60.70;;;;;;5050605;28;20029;-72
2022/09/15 03:56:26;;;;;;;1.98;1.27;;;16.90;60.70;;;;;;5068954;28;20028;-74
2022/09/15 03:58:53;;;;;;;1.70;0.80;;;16.80;60.60;;;;;;5055464;28;20037;-73
2022/09/15 04:01:19;;;;;;;3.60;1.35;;;16.80;60.60;;;;;;5053981;28;20040;-74
2022/09/15 04:03:46;;;;;;;2.92;1.50;;;16.80;60.60;;;;;;5051343;28;20143;-73
2022/09/15 04:06:12;;;;;;;2.40;1.30;;;16.80;60.60;;;;;;5047953;28;20060;-73
2022/09/15 04:08:38;;;;;;;1.85;1.00;;;16.80;60.70;;;;;;5050595;28;20044;-75
2022/09/15 04:11:07;;;;;;;1.73;0.85;;;16.80;60.70;;;;;;5039477;28;20036;-76
2022/09/15 04:13:34;;;;;;;3.90;1.15;;;16.80;60.70;;;;;;5055822;28;20102;-74
2022/09/15 04:16:02;;;;;;;3.38;0.77;;;16.80;60.70;;;;;;5042670;28;20029;-74
2022/09/15 04:18:29;;;;;;;3.15;1.27;;;16.80;60.70;;;;;;5040048;28;20029;-73
2022/09/15 04:21:05;;;;;;;4.05;1.58;;;16.80;60.80;;;;;;5031675;28;20103;-73
2022/09/15 04:23:32;;;;;;;2.33;1.10;;;16.70;60.60;;;;;;5051911;28;20083;-74
2022/09/15 04:26:01;;;;;;;1.48;0.95;;;16.70;60.60;;;;;;5049595;28;20037;-73
2022/09/15 04:28:30;;;;;;;5.32;1.63;;;16.70;60.60;;;;;;5051664;28;20028;-74
2022/09/15 04:31:10;;;;;;;1.25;0.95;;;16.70;60.60;;;;;;5047460;28;20041;-73
2022/09/15 04:33:38;;;;;;;2.42;1.00;;;16.70;60.60;;;;;;5049942;28;20029;-74
2022/09/15 04:36:09;;;;;;;5.22;1.17;;;16.70;60.60;;;;;;5055190;28;20364;-73
2022/09/15 04:38:37;;;;;;;2.72;1.08;;;16.70;60.50;;;;;;5047820;28;20036;-75
2022/09/15 04:41:04;;;;;;;4.38;1.60;;;16.70;60.50;;;;;;5048326;28;20094;-75
2022/09/15 04:43:31;;;;;;;3.45;1.02;;;16.70;60.50;;;;;;5050051;28;20036;-74
2022/09/15 04:45:57;;;;;;;4.28;1.70;;;16.70;60.60;;;;;;5049319;28;20039;-74
2022/09/15 04:48:24;;;;;;;5.07;1.50;;;16.70;60.50;;;;;;5046481;28;20041;-74
2022/09/15 04:50:52;;;;;;;2.83;1.30;;;16.60;60.30;;;;;;5044185;28;20568;-73
2022/09/15 04:53:18;;;;;;;4.30;1.30;;;16.60;60.30;;;;;;5046986;28;20164;-74
2022/09/15 04:55:44;;;;;;;3.40;1.33;;;16.60;60.30;;;;;;5046133;28;20431;-73
2022/09/15 04:58:10;;;;;;;4.68;1.92;;;16.60;60.30;;;;;;5046240;28;20041;-73
2022/09/15 05:00:42;;;;;;;3.60;1.23;;;16.60;60.30;;;;;;5048011;28;20365;-74
2022/09/15 05:03:13;;;;;;;3.10;1.02;;;16.60;60.30;;;;;;5051006;28;20024;-74
2022/09/15 05:05:40;;;;;;;3.53;1.08;;;16.60;60.30;;;;;;5044361;28;20657;-74
2022/09/15 05:08:07;;;;;;;3.75;1.27;;;16.50;60.20;;;;;;5048002;28;20058;-75
2022/09/15 05:10:33;;;;;;;3.17;1.48;;;16.50;60.20;;;;;;5048156;28;20389;-74
2022/09/15 05:12:59;;;;;;;3.95;1.17;;;16.50;60.30;;;;;;5045951;28;20040;-73
2022/09/15 05:15:25;;;;;;;3.55;1.50;;;16.50;60.20;;;;;;5047624;28;20380;-75
2022/09/15 05:17:51;;;;;;;3.25;1.23;;;16.50;60.20;;;;;;5043737;28;20033;-74
2022/09/15 05:20:17;;;;;;;5.15;1.48;;;16.50;60.30;;;;;;5047502;28;20031;-73
2022/09/15 05:22:44;;;;;;;1.80;0.95;;;16.50;60.30;;;;;;5046947;28;20032;-74
2022/09/15 05:25:10;;;;;;;2.65;1.60;;;16.50;60.30;;;;;;5048163;28;20024;-73
2022/09/15 05:27:38;;;;;;;3.65;1.25;;;16.50;60.30;;;;;;5038901;28;20060;-75
2022/09/15 05:30:06;;;;;;;5.40;1.67;;;16.50;60.30;;;;;;5026269;28;20032;-74
2022/09/15 05:32:31;;;;;;;4.25;1.35;;;16.50;60.40;;;;;;5036718;28;20037;-74
2022/09/15 05:34:57;;;;;;;2.40;1.00;;;16.50;60.30;;;;;;5045314;28;20045;-73
2022/09/15 05:37:23;;;;;;;3.83;1.15;;;16.50;60.40;;;;;;5043037;28;20048;-73
2022/09/15 05:39:49;;;;;;;3.55;1.20;;;16.50;60.40;;;;;;5056841;28;20446;-73
2022/09/15 05:42:16;;;;;;;4.18;1.30;;;16.50;60.40;;;;;;5046223;28;20090;-74
2022/09/15 05:44:42;;;;;;;14.10;1.98;;;16.50;60.40;;;;;;5043822;28;20037;-74
2022/09/15 05:47:07;;;;;;;3.08;1.05;;;16.50;60.40;;;;;;5028771;28;20112;-74
2022/09/15 05:49:34;;;;;;;3.88;1.33;;;16.50;60.40;;;;;;5048603;28;20045;-75
2022/09/15 05:52:01;;;;;;;2.67;1.02;;;16.50;60.40;;;;;;5051813;28;20052;-75
2022/09/15 05:54:27;;;;;;;2.78;1.20;;;16.50;60.40;;;;;;5039738;28;20047;-75
2022/09/15 05:56:53;;;;;;;3.33;1.30;;;16.50;60.30;;;;;;5041275;28;20029;-74
2022/09/15 05:59:20;;;;;;;5.82;2.40;;;16.50;60.30;;;;;;5050919;28;20384;-75
2022/09/15 06:01:46;;;;;;;3.83;1.17;;;16.50;60.30;;;;;;5051541;28;20032;-75
2022/09/15 06:04:14;;;;;;;5.70;1.45;;;16.50;60.30;;;;;;5052407;28;20037;-75
2022/09/15 06:06:40;;;;;;;4.93;1.92;;;16.50;60.40;;;;;;5049046;28;20055;-78
2022/09/15 06:09:06;;;;;;;5.00;1.80;;;16.40;60.90;;;;;;5049230;28;20495;-78
2022/09/15 06:11:33;;;;;;;3.65;1.90;;;16.50;62.10;;;;;;5047738;28;20443;-78
2022/09/15 06:14:02;;;;;;;6.57;2.42;;;16.60;63.10;;;;;;5048110;28;20025;-77
2022/09/15 06:16:31;;;;;;;6.82;2.30;;;16.70;64.30;;;;;;5054599;28;20020;-77
2022/09/15 06:19:02;;;;;;;9.60;1.95;;;16.90;64.80;;;;;;5046153;28;20047;-77
2022/09/15 06:21:31;;;;;;;6.88;2.08;;;16.90;64.70;;;;;;5046111;28;20310;-76
2022/09/15 06:24:00;;;;;;;4.35;2.28;;;17.00;65.10;;;;;;5052652;28;20024;-76
2022/09/15 06:26:26;;;;;;;5.90;1.83;;;17.10;65.40;;;;;;5046470;28;20028;-76
2022/09/15 06:29:01;;;;;;;4.50;2.00;;;17.20;65.50;;;;;;5050977;28;20141;-77
2022/09/15 06:31:30;;;;;;;7.45;2.70;;;17.30;65.90;;;;;;5047490;28;20075;-75
2022/09/15 06:33:56;;;;;;;6.88;1.77;;;17.40;65.70;;;;;;5041890;28;20090;-75
2022/09/15 06:36:26;;;;;;;6.65;1.52;;;17.50;65.70;;;;;;5043334;28;20030;-74
2022/09/15 06:38:52;;;;;;;4.22;1.80;;;17.50;65.50;;;;;;5040044;28;20100;-74
2022/09/15 06:41:18;;;;;;;7.15;1.92;;;17.60;65.20;;;;;;5041758;28;20554;-75
2022/09/15 06:43:44;;;;;;;2.97;1.45;;;17.60;65.10;;;;;;5049742;28;20024;-75
2022/09/15 06:46:16;;;;;;;3.67;1.48;;;17.60;64.80;;;;;;5043809;28;20037;-75
2022/09/15 06:48:43;;;;;;;3.42;1.25;;;17.50;64.40;;;;;;5044650;28;20440;-74
2022/09/15 06:51:11;;;;;;;4.43;1.63;;;17.60;64.40;;;;;;5043069;28;20043;-74
2022/09/15 06:53:38;;;;;;;6.57;1.98;;;17.60;64.20;;;;;;5039351;28;20078;-75
2022/09/15 06:56:13;;;;;;;4.85;1.80;;;17.50;63.80;;;;;;5039194;28;20032;-74
2022/09/15 06:58:40;;;;;;;5.80;1.40;;;17.50;63.60;;;;;;5042781;28;20036;-75
2022/09/15 07:01:13;;;;;;;5.85;1.90;;;17.50;63.40;;;;;;5048563;28;20037;-76
2022/09/15 07:03:41;;;;;;;3.70;1.40;;;17.50;63.20;;;;;;5045671;28;20051;-76
2022/09/15 07:06:08;;;;;;;6.00;1.38;;;17.50;63.00;;;;;;5054527;28;20046;-77
2022/09/15 07:08:34;;;;;;;3.17;1.50;;;17.60;63.10;;;;;;5041064;28;20087;-75
2022/09/15 07:11:00;;;;;;;4.55;1.58;;;17.60;63.20;;;;;;5059391;28;20041;-73
2022/09/15 07:13:26;;;;;;;7.72;2.25;;;17.60;63.20;;;;;;5049339;28;20117;-74
2022/09/15 07:15:57;;;;;;;1.70;0.93;;;17.60;63.00;;;;;;5045447;28;20033;-73
2022/09/15 07:18:24;;;;;;;3.92;1.15;;;17.70;62.90;;;;;;5023414;28;20036;-73
2022/09/15 07:20:50;;;;;;;2.90;1.20;;;17.70;62.70;;;;;;5043663;28;20484;-74
2022/09/15 07:23:17;;;;;;;4.57;1.58;;;17.70;62.50;;;;;;5037239;28;20028;-76
2022/09/15 07:25:44;;;;;;;3.95;1.83;;;17.70;62.20;;;;;;5046720;28;20300;-77
2022/09/15 07:28:12;;;;;;;4.82;1.70;;;17.80;62.10;;;;;;5040116;28;20039;-75
2022/09/15 07:30:38;;;;;;;5.45;1.17;;;17.80;61.90;;;;;;5036171;28;20454;-75
2022/09/15 07:33:09;;;;;;;2.85;0.93;;;17.80;61.60;;;;;;5030073;28;20049;-75
2022/09/15 07:35:41;;;;;;;2.03;0.90;;;17.90;61.50;;;;;;5027666;28;20031;-74
2022/09/15 07:38:10;;;;;;;5.85;2.05;;;17.90;61.30;;;;;;5044259;28;20081;-76
2022/09/15 07:40:37;;;;;;;3.10;1.10;;;17.90;61.10;;;;;;5052717;28;20044;-76
2022/09/15 07:43:04;;;;;;;6.57;2.13;;;18.00;61.00;;;;;;5052864;28;20502;-75
2022/09/15 07:45:31;;;;;;;3.95;1.25;;;18.00;60.80;;;;;;5047019;28;20025;-75
2022/09/15 07:47:57;;;;;;;4.32;1.48;;;18.10;60.70;;;;;;5045307;28;20031;-75
2022/09/15 07:50:23;;;;;;;1.98;1.20;;;18.20;60.70;;;;;;5048140;28;20037;-73
2022/09/15 07:52:50;;;;;;;2.72;1.00;;;18.30;60.60;;;;;;5045969;28;20023;-75
2022/09/15 07:55:17;;;;;;;3.28;1.45;;;18.30;60.30;;;;;;5051135;28;20078;-73
2022/09/15 07:57:43;;;;;;;6.07;1.45;;;18.40;60.20;;;;;;5028984;28;20043;-74
2022/09/15 08:00:09;;;;;;;5.13;1.70;;;18.50;60.20;;;;;;5043578;28;20029;-73
2022/09/15 08:02:38;;;;;;;5.07;1.33;;;18.60;60.00;;;;;;5056078;28;20067;-73
2022/09/15 08:05:04;;;;;;;5.18;1.13;;;18.70;59.90;;;;;;5046694;28;20053;-75
2022/09/15 08:07:30;;;;;;;4.30;1.20;;;18.80;59.80;;;;;;5048583;28;20014;-73
2022/09/15 08:09:56;;;;;;;3.70;1.05;;;19.00;59.80;;;;;;5049315;28;20035;-75
2022/09/15 08:12:22;;;;;;;6.50;2.10;;;19.10;59.60;;;;;;5038895;28;20037;-76
2022/09/15 08:14:48;;;;;;;3.85;1.50;;;19.20;59.50;;;;;;5045842;28;20105;-76
2022/09/15 08:17:14;;;;;;;1.73;1.00;;;19.30;59.30;;;;;;5045992;28;20103;-75
2022/09/15 08:19:40;;;;;;;4.00;1.25;;;19.40;59.20;;;;;;5049135;28;20025;-76
2022/09/15 08:22:06;;;;;;;8.13;2.58;;;19.40;59.00;;;;;;5048320;28;20146;-76
2022/09/15 08:24:32;;;;;;;4.00;1.33;;;19.50;59.00;;;;;;5050805;28;20426;-75
2022/09/15 08:26:58;;;;;;;2.95;1.20;;;19.50;58.80;;;;;;5029837;28;20036;-75
2022/09/15 08:29:24;;;;;;;5.47;1.63;;;19.50;58.60;;;;;;5051631;28;20041;-76
2022/09/15 08:31:50;;;;;;;4.20;1.50;;;19.60;58.70;;;;;;5032861;28;20041;-76
2022/09/15 08:34:16;;;;;;;11.38;1.85;;;19.60;58.30;;;;;;5049617;28;20096;-76
2022/09/15 08:36:42;;;;;;;4.38;1.45;;;19.70;58.20;;;;;;5045300;28;20497;-76
2022/09/15 08:39:10;;;;;;;3.75;1.30;;;19.70;58.00;;;;;;5044056;28;20108;-75
2022/09/15 08:41:44;;;;;;;2.83;1.15;;;19.70;57.80;;;;;;5049225;28;20465;-75
2022/09/15 08:44:31;;;;;;;4.60;1.10;;;19.70;57.60;;;;;;5047085;28;20021;-76
2022/09/15 08:47:00;;;;;;;4.45;1.23;;;19.70;57.50;;;;;;5045361;28;20366;-75
2022/09/15 08:49:44;;;;;;;4.72;1.10;;;19.70;57.50;;;;;;5044937;28;20049;-75
2022/09/15 08:52:27;;;;;;;1.95;1.23;;;19.60;57.30;;;;;;5027357;28;20049;-75
2022/09/15 08:54:56;;;;;;;;;;;19.60;57.30;;;;;;5035256;28;20026;-74
2022/09/15 08:57:24;;;;;;;2.92;0.95;;;19.40;57.30;;;;;;5034241;28;19909;-76
2022/09/15 08:59:54;;;;;;;4.50;1.23;;;19.40;57.40;;;;;;5032192;28;20037;-75
2022/09/15 09:02:57;;;;;;;3.47;1.33;;;19.40;57.40;;;;;;5050566;28;20047;-76
2022/09/15 09:05:40;;;;;;;3.80;1.85;;;19.30;57.20;;;;;;5027740;28;20041;-77
2022/09/15 09:08:19;;;;;;;4.57;1.63;;;19.30;57.20;;;;;;5047160;28;20427;-76
2022/09/15 09:10:56;;;;;;;3.70;0.80;;;19.30;57.30;;;;;;5013954;28;20051;-76
2022/09/15 09:13:28;;;;;;;7.60;1.27;;;19.30;57.20;;;;;;5048635;28;20029;-75
2022/09/15 09:16:20;;;;;;;7.55;1.40;;;19.40;57.40;;;;;;5045915;28;20025;-75
2022/09/15 09:19:34;;;;;;;5.72;1.58;;;19.60;57.70;;;;;;5028550;28;20033;-75
2022/09/15 09:22:08;;;;;;;4.35;1.65;;;19.80;57.60;;;;;;5036731;28;20086;-74
2022/09/15 09:24:43;;;;;;;4.40;1.38;;;19.90;57.40;;;;;;5041092;28;20087;-76
2022/09/15 09:27:17;;;;;;;3.35;1.42;;;20.10;57.20;;;;;;5048877;28;20041;-74
2022/09/15 09:29:48;;;;;;;2.72;1.25;;;20.20;56.80;;;;;;5045202;28;20021;-76
2022/09/15 09:32:32;;;;;;;3.13;1.10;;;20.40;56.60;;;;;;5036991;28;20037;-76
2022/09/15 09:35:32;;;;;;;3.55;1.10;;;20.60;56.30;;;;;;5047037;28;20029;-75
2022/09/15 09:38:01;;;;;;;5.22;1.42;;;20.80;55.80;;;;;;5037339;28;20092;-76
2022/09/15 09:40:30;;;;;;;3.88;1.35;;;21.00;55.80;;;;;;5051899;28;20021;-78
2022/09/15 09:42:56;;;;;;;3.53;1.40;;;21.10;55.30;;;;;;5057860;28;20047;-78
2022/09/15 09:45:23;;;;;;;3.83;0.85;;;21.30;55.20;;;;;;5052951;28;20017;-74
2022/09/15 09:47:49;;;;;;;8.07;1.98;;;21.40;54.90;;;;;;5045698;28;20477;-75
2022/09/15 09:50:38;;;;;;;3.83;1.10;;;21.50;54.50;;;;;;5056850;28;20056;-75
2022/09/15 09:53:25;;;;;;;4.32;1.55;;;21.60;53.70;;;;;;5041924;28;20533;-77
2022/09/15 09:55:54;;;;;;;9.98;2.70;;;21.60;53.20;;;;;;5028950;28;20103;-75
2022/09/15 09:58:24;;;;;;;4.68;1.23;;;21.60;53.50;;;;;;5045069;28;20043;-75
2022/09/15 10:00:51;;;;;;;3.88;1.30;;;21.60;53.00;;;;;;5049392;28;20412;-76
2022/09/15 10:03:25;;;;;;;5.05;1.83;;;21.60;52.90;;;;;;5054446;28;20047;-75
2022/09/15 10:06:28;;;;;;;3.95;1.23;;;21.50;52.40;;;;;;5037652;28;20021;-81
2022/09/15 10:09:05;;;;;;;4.05;1.48;;;21.50;51.90;;;;;;5050465;28;20037;-77
2022/09/15 10:11:45;;;;;;;3.63;1.30;;;21.50;52.10;;;;;;5040315;28;20488;-77
2022/09/15 10:14:24;;;;;;;4.03;1.20;;;21.50;51.70;;;;;;5039028;28;20431;-76
2022/09/15 10:17:01;;;;;;;2.78;1.05;;;21.60;51.80;;;;;;5035842;28;20021;-75
2022/09/15 10:19:31;;;;;;;4.53;0.85;;;21.50;51.30;;;;;;5043756;28;20037;-75
2022/09/15 10:21:59;;;;;;;5.40;1.30;;;21.70;51.60;;;;;;5023046;28;20038;-75
2022/09/15 10:24:40;;;;;;;1.83;0.90;;;21.80;51.40;;;;;;5041986;28;20035;-74
2022/09/15 10:27:27;;;;;;;3.88;1.15;;;21.90;50.80;;;;;;5062307;28;20025;-76
2022/09/15 10:29:54;;;;;;;2.45;1.02;;;22.00;51.10;;;;;;5062264;28;20182;-75
2022/09/15 10:32:28;;;;;;;3.42;1.00;;;22.10;50.70;;;;;;5049495;28;20255;-74
2022/09/15 10:34:59;;;;;;;4.78;2.10;;;22.30;50.50;;;;;;5047534;28;20294;-75
2022/09/15 10:38:00;;;;;;;3.80;1.35;;;22.40;50.30;;;;;;5041482;28;20223;-74
2022/09/15 10:40:49;;;;;;;4.15;1.27;;;22.50;49.80;;;;;;5040457;28;20048;-74
2022/09/15 10:43:21;;;;;;;3.03;1.00;;;22.60;50.00;;;;;;5046656;28;20095;-74
2022/09/15 10:45:49;;;;;;;4.07;1.20;;;22.60;50.00;;;;;;5041837;28;20461;-75
2022/09/15 10:49:08;;;;;;;5.00;1.23;;;22.70;49.90;;;;;;5032451;28;20017;-74
2022/09/15 10:51:53;;;;;;;3.88;1.65;;;22.80;49.30;;;;;;5023226;28;20050;-74
2022/09/15 10:54:41;;;;;;;3.08;1.23;;;23.00;49.90;;;;;;5036347;28;20062;-74
2022/09/15 10:57:18;;;;;;;2.58;0.80;;;23.00;49.50;;;;;;5046520;28;20029;-75
2022/09/15 10:59:50;;;;;;;6.22;1.35;;;23.10;49.30;;;;;;5043481;28;20040;-75
2022/09/15 11:02:31;;;;;;;3.58;0.80;;;23.00;49.10;;;;;;5052864;28;20020;-75
2022/09/15 11:05:16;;;;;;;6.55;2.08;;;23.00;49.00;;;;;;5057332;28;20549;-75
2022/09/15 11:07:47;;;;;;;4.70;1.58;;;22.90;49.20;;;;;;5042708;28;20135;-75
2022/09/15 11:10:54;;;;;;;2.78;1.00;;;22.80;49.20;;;;;;5052504;28;20041;-75
2022/09/15 11:13:58;;;;;;;3.22;1.38;;;22.80;48.80;;;;;;5034674;28;20413;-74
2022/09/15 11:16:27;;;;;;;3.53;1.00;;;22.80;48.60;;;;;;5039557;28;20037;-74
2022/09/15 11:19:20;;;;;;;3.20;1.15;;;22.80;48.80;;;;;;5047434;28;20035;-75
2022/09/15 11:22:04;;;;;;;3.08;1.02;;;22.70;48.50;;;;;;5049048;28;20112;-76
2022/09/15 11:24:39;;;;;;;3.28;1.20;;;22.60;48.30;;;;;;5068081;28;20025;-81
2022/09/15 11:27:35;;;;;;;3.92;1.10;;;22.60;48.40;;;;;;5055733;28;20096;-75
2022/09/15 11:30:06;;;;;;;3.17;1.00;;;22.50;48.10;;;;;;5045050;28;20032;-75
2022/09/15 11:32:50;;;;;;;3.17;1.73;;;22.50;48.50;;;;;;5046684;28;20185;-76
2022/09/15 11:35:38;;;;;;;3.67;1.20;;;22.50;48.20;;;;;;5049962;28;20529;-75
2022/09/15 11:38:29;;;;;;;2.97;0.82;;;22.60;47.90;;;;;;5053740;28;20043;-76
2022/09/15 11:41:05;;;;;;;3.60;1.10;;;22.70;47.70;;;;;;5031902;28;20041;-75
2022/09/15 11:43:37;;;;;;;3.95;1.60;;;22.60;47.70;;;;;;5049246;28;20055;-75
2022/09/15 11:46:11;;;;;;;2.33;0.90;;;22.60;47.50;;;;;;5056187;28;20037;-76
2022/09/15 11:49:11;;;;;;;3.88;1.08;;;22.60;47.40;;;;;;5042323;28;20033;-74
2022/09/15 11:51:45;;;;;;;5.22;1.10;;;22.70;47.20;;;;;;5047705;28;20044;-75
2022/09/15 11:54:28;;;;;;;3.45;1.70;;;22.80;47.40;;;;;;5029806;28;20128;-77
2022/09/15 11:56:55;;;;;;;3.72;1.48;;;22.80;46.70;;;;;;5042022;28;20039;-74
2022/09/15 11:59:39;;;;;;;6.03;1.75;;;22.90;46.90;;;;;;5049608;28;20029;-75
2022/09/15 12:02:28;;;;;;;4.18;1.00;;;23.00;46.60;;;;;;5054264;28;20037;-74
2022/09/15 12:05:14;;;;;;;2.65;0.98;;;23.30;46.40;;;;;;5044040;28;20673;-74
2022/09/15 12:07:46;;;;;;;3.55;1.58;;;23.50;46.30;;;;;;5041218;28;20040;-77
2022/09/15 12:10:17;;;;;;;3.50;0.98;;;23.70;46.50;;;;;;5044836;28;20447;-75
2022/09/15 12:12:45;;;;;;;4.45;1.30;;;23.90;46.80;;;;;;5044799;28;20041;-75
2022/09/15 12:15:18;;;;;;;3.53;1.02;;;24.10;46.80;;;;;;5047357;28;20070;-75
2022/09/15 12:18:00;;;;;;;4.07;1.08;;;24.30;46.60;;;;;;5041707;28;20029;-75
2022/09/15 12:20:56;;;;;;;4.28;1.50;;;24.40;46.30;;;;;;5039191;28;20504;-75
2022/09/15 12:23:32;;;;;;;4.38;1.90;;;24.50;46.00;;;;;;5044979;28;20049;-75
2022/09/15 12:26:13;;;;;;;2.67;1.10;;;24.50;46.10;;;;;;5045097;28;20039;-76
2022/09/15 12:28:42;;;;;;;3.35;0.93;;;24.50;45.70;;;;;;5049597;28;20021;-73
2022/09/15 12:31:29;;;;;;;4.03;1.17;;;24.50;45.90;;;;;;5047342;28;20381;-74
2022/09/15 12:34:35;;;;;;;5.35;1.75;;;24.50;45.70;;;;;;5042159;28;20446;-75
2022/09/15 12:37:13;;;;;;;4.70;1.23;;;24.60;45.60;;;;;;5044083;28;20051;-74
2022/09/15 12:39:44;;;;;;;2.85;1.60;;;24.70;45.80;;;;;;5048277;28;20254;-74
2022/09/15 12:42:17;;;;;;;5.60;1.25;;;24.70;45.70;;;;;;5058809;28;20118;-75
2022/09/15 12:45:02;;;;;;;6.88;1.42;;;24.80;45.60;;;;;;5058852;28;20033;-74
2022/09/15 12:47:39;;;;;;;2.55;0.90;;;24.80;45.40;;;;;;5043848;28;20048;-74
2022/09/15 12:50:18;;;;;;;3.15;1.30;;;24.80;45.40;;;;;;5058997;28;20040;-75
2022/09/15 12:52:48;;;;;;;3.28;1.13;;;24.90;45.60;;;;;;5049057;28;20754;-75
2022/09/15 12:55:35;;;;;;;1.98;1.00;;;25.00;45.40;;;;;;5046472;28;20021;-74
2022/09/15 12:58:17;;;;;;;7.05;1.75;;;25.10;45.00;;;;;;5026753;28;20037;-76
2022/09/15 13:00:44;;;;;;;4.72;1.05;;;25.10;44.90;;;;;;5041289;28;20036;-74
2022/09/15 13:03:56;;;;;;;2.75;0.90;;;25.10;44.80;;;;;;5053644;28;20285;-78
2022/09/15 13:06:24;;;;;;;2.30;1.10;;;25.10;44.50;;;;;;5046703;28;20055;-75
2022/09/15 13:09:06;;;;;;;4.10;1.67;;;25.00;44.90;;;;;;5045443;28;20110;-74
2022/09/15 13:11:38;;;;;;;4.53;1.10;;;24.90;44.60;;;;;;5036080;28;20048;-75
2022/09/15 13:14:07;;;;;;;3.92;0.95;;;24.80;44.80;;;;;;5022734;28;20033;-74
2022/09/15 13:16:39;;;;;;;3.08;1.00;;;24.90;45.10;;;;;;5031604;28;20029;-74
2022/09/15 13:19:45;;;;;;;4.43;1.75;;;25.00;44.80;;;;;;5045427;28;20495;-74
2022/09/15 13:22:20;;;;;;;2.45;0.82;;;25.20;44.40;;;;;;5038925;28;20048;-75